CSCL Dalian — VRBH4 — position and weather

sailwx.info

Track history (hours):
 
Tides and Currents Weather Stations Pressure Air Temp Water Temp Dewpoint Dewpoint Depression Visibility Wind Speed Wind Dir Waves Ship Positions

CSCL Dalian

Last reported at 2017-Feb-20 01:13 UTC. Time now 2017-Feb-20 08:53 UTC.
Position N 19°59' W 096°17'.

Length 259.8 m; ; draft 11 m.

Type: Cargo ship. MMSI: 477014600.

Date/timePositionNaut miles runAvg speedWind from/ knotsBaromVisibWave heightAir tempDewpointWater temp
2017-Feb-20 01:13N 19°59' W 096°17'1117.1
2017-Feb-20 00:33N 19°49' W 096°12'1817.1
2017-Feb-19 23:31N 19°33' W 096°04'1717.4
2017-Feb-19 22:33N 19°17' W 095°57'1110.9
2017-Feb-19 21:33N 19°12' W 096°08'1 0.6
2017-Feb-19 20:32N 19°13' W 096°08'0 0.0
2017-Feb-19 19:33N 19°13' W 096°08'0 0.0
2017-Feb-19 18:33N 19°13' W 096°08'0 0.0
2017-Feb-19 17:33N 19°13' W 096°08'0 0.0
2017-Feb-19 16:33N 19°13' W 096°08'0 0.0
2017-Feb-19 15:33N 19°13' W 096°08'0 0.0
2017-Feb-19 14:33N 19°13' W 096°08'0 0.0
2017-Feb-19 13:33N 19°13' W 096°08'0 0.0
2017-Feb-19 12:33N 19°13' W 096°08'0 0.0
2017-Feb-19 11:33N 19°13' W 096°08'0 0.0
2017-Feb-19 10:33N 19°13' W 096°08'0 0.0
2017-Feb-19 09:33N 19°13' W 096°08'0 0.0
2017-Feb-19 08:33N 19°13' W 096°08'0 0.0
2017-Feb-19 07:33N 19°13' W 096°08'0 0.0
2017-Feb-19 06:33N 19°13' W 096°08'0 0.0
2017-Feb-19 05:33N 19°13' W 096°08'0 0.1
2017-Feb-19 04:33N 19°13' W 096°08'4 3.8
2017-Feb-19 03:34N 19°12' W 096°04'6 5.5
2017-Feb-19 02:33N 19°15' W 095°60'9 8.9
2017-Feb-19 01:34N 19°23' W 095°56'1 0.6
2017-Feb-19 00:33N 19°24' W 095°55'1 0.5
2017-Feb-18 22:32N 19°24' W 095°55'0 0.3
2017-Feb-18 21:33N 19°24' W 095°54'0 0.3
2017-Feb-18 20:33N 19°24' W 095°54'0 0.2
2017-Feb-18 19:33N 19°24' W 095°54'0 0.3
2017-Feb-18 18:33N 19°24' W 095°54'0 0.3
2017-Feb-18 17:33N 19°24' W 095°53'0 0.5
2017-Feb-18 16:33N 19°24' W 095°53'1 0.6
2017-Feb-18 15:33N 19°23' W 095°53'1 0.5
2017-Feb-18 14:33N 19°23' W 095°53'0 0.5
2017-Feb-18 13:33N 19°22' W 095°53'2 2.1
2017-Feb-18 12:34N 19°24' W 095°53'1211.6
2017-Feb-18 11:33N 19°32' W 095°44'  
2017-Feb-11 16:22N 25°33' W 079°38'1215.1
2017-Feb-11 15:33N 25°44' W 079°41'1414.4
2017-Feb-11 14:33N 25°56' W 079°50'1514.8
2017-Feb-11 13:33N 26°05' W 080°03'3 3.2
2017-Feb-11 12:28N 26°04' W 080°07'0 0.0
2017-Feb-11 11:25N 26°04' W 080°07'0 0.0
2017-Feb-11 10:33N 26°04' W 080°07'0 0.0
2017-Feb-11 09:33N 26°04' W 080°07'0 0.0
2017-Feb-11 08:33N 26°04' W 080°07'0 0.0
2017-Feb-11 07:34N 26°04' W 080°07'0 0.0
2017-Feb-11 06:33N 26°04' W 080°07'0 0.0
2017-Feb-11 05:33N 26°04' W 080°07'0 0.0
2017-Feb-11 04:33N 26°04' W 080°07'0 0.0
2017-Feb-11 03:33N 26°04' W 080°07'0 0.0
2017-Feb-11 02:33N 26°04' W 080°07'0 0.0
2017-Feb-11 01:33N 26°04' W 080°07'0 0.0
2017-Feb-11 00:33N 26°04' W 080°07'0 0.0
2017-Feb-10 23:33N 26°04' W 080°07'0 0.4
2017-Feb-10 22:33N 26°05' W 080°07'6 5.7
2017-Feb-10 21:33N 26°06' W 080°01'1212.4
2017-Feb-10 20:33N 26°08' W 079°47'1414.1
2017-Feb-10 19:34N 26°10' W 079°31'  
Track history (hours):
 
Tides and Currents Weather Stations Pressure Air Temp Water Temp Dewpoint Dewpoint Depression Visibility Wind Speed Wind Dir Waves Ship Positions

CSCL Dalian

Last reported at 2017-Feb-20 01:13 UTC. Time now 2017-Feb-20 08:53 UTC.
Position N 19°59' W 096°17'.

Length 259.8 m; ; draft 11 m.

Type: Cargo ship. MMSI: 477014600.

Date/timePositionNaut miles runAvg speedWind from/ knotsBaromVisibWave heightAir tempDewpointWater temp
2017-Feb-20 01:13N 19°59' W 096°17'1117.1
2017-Feb-20 00:33N 19°49' W 096°12'1817.1
2017-Feb-19 23:31N 19°33' W 096°04'1717.4
2017-Feb-19 22:33N 19°17' W 095°57'1110.9
2017-Feb-19 21:33N 19°12' W 096°08'1 0.6
2017-Feb-19 20:32N 19°13' W 096°08'0 0.0
2017-Feb-19 19:33N 19°13' W 096°08'0 0.0
2017-Feb-19 18:33N 19°13' W 096°08'0 0.0
2017-Feb-19 17:33N 19°13' W 096°08'0 0.0
2017-Feb-19 16:33N 19°13' W 096°08'0 0.0
2017-Feb-19 15:33N 19°13' W 096°08'0 0.0
2017-Feb-19 14:33N 19°13' W 096°08'0 0.0
2017-Feb-19 13:33N 19°13' W 096°08'0 0.0
2017-Feb-19 12:33N 19°13' W 096°08'0 0.0
2017-Feb-19 11:33N 19°13' W 096°08'0 0.0
2017-Feb-19 10:33N 19°13' W 096°08'0 0.0
2017-Feb-19 09:33N 19°13' W 096°08'0 0.0
2017-Feb-19 08:33N 19°13' W 096°08'0 0.0
2017-Feb-19 07:33N 19°13' W 096°08'0 0.0
2017-Feb-19 06:33N 19°13' W 096°08'0 0.0
2017-Feb-19 05:33N 19°13' W 096°08'0 0.1
2017-Feb-19 04:33N 19°13' W 096°08'4 3.8
2017-Feb-19 03:34N 19°12' W 096°04'6 5.5
2017-Feb-19 02:33N 19°15' W 095°60'9 8.9
2017-Feb-19 01:34N 19°23' W 095°56'1 0.6
2017-Feb-19 00:33N 19°24' W 095°55'1 0.5
2017-Feb-18 22:32N 19°24' W 095°55'0 0.3
2017-Feb-18 21:33N 19°24' W 095°54'0 0.3
2017-Feb-18 20:33N 19°24' W 095°54'0 0.2
2017-Feb-18 19:33N 19°24' W 095°54'0 0.3
2017-Feb-18 18:33N 19°24' W 095°54'0 0.3
2017-Feb-18 17:33N 19°24' W 095°53'0 0.5
2017-Feb-18 16:33N 19°24' W 095°53'1 0.6
2017-Feb-18 15:33N 19°23' W 095°53'1 0.5
2017-Feb-18 14:33N 19°23' W 095°53'0 0.5
2017-Feb-18 13:33N 19°22' W 095°53'2 2.1
2017-Feb-18 12:34N 19°24' W 095°53'1211.6
2017-Feb-18 11:33N 19°32' W 095°44'  
2017-Feb-11 16:22N 25°33' W 079°38'1215.1
2017-Feb-11 15:33N 25°44' W 079°41'1414.4
2017-Feb-11 14:33N 25°56' W 079°50'1514.8
2017-Feb-11 13:33N 26°05' W 080°03'3 3.2
2017-Feb-11 12:28N 26°04' W 080°07'0 0.0
2017-Feb-11 11:25N 26°04' W 080°07'0 0.0
2017-Feb-11 10:33N 26°04' W 080°07'0 0.0
2017-Feb-11 09:33N 26°04' W 080°07'0 0.0
2017-Feb-11 08:33N 26°04' W 080°07'0 0.0
2017-Feb-11 07:34N 26°04' W 080°07'0 0.0
2017-Feb-11 06:33N 26°04' W 080°07'0 0.0
2017-Feb-11 05:33N 26°04' W 080°07'0 0.0
2017-Feb-11 04:33N 26°04' W 080°07'0 0.0
2017-Feb-11 03:33N 26°04' W 080°07'0 0.0
2017-Feb-11 02:33N 26°04' W 080°07'0 0.0
2017-Feb-11 01:33N 26°04' W 080°07'0 0.0
2017-Feb-11 00:33N 26°04' W 080°07'0 0.0
2017-Feb-10 23:33N 26°04' W 080°07'0 0.4
2017-Feb-10 22:33N 26°05' W 080°07'6 5.7
2017-Feb-10 21:33N 26°06' W 080°01'1212.4
2017-Feb-10 20:33N 26°08' W 079°47'1414.1
2017-Feb-10 19:34N 26°10' W 079°31'  

Dump ship's entire track history